Pagina principale
METAR-TAF:

METAR-TAF

Aeroporti :

Vereeniging, Sudafrica

latitudine: 26-34-29S, longitudine: 027-57-45E, altezza: 1483 m

Osservazione

Il bollettino è stato emesso 55 minuti fa, alle 06:00 UTC
Vento 1 kt da est/sud-est
Temperature 2°C
Umidità 80%
Pressione 1031 hPa

METAR: FAVV 170600Z AUTO 12001KT //// // ////// 02/M01 Q1031

Ora: 08:55 (06:55 UTC)


TAF: mancante

Osservazioni e previsioni meteorologiche di più di 4000 aeroporti (messaggi METAR e TAF).

Le stazioni disponibili sono rappresentate dai dischi gialli e rossi sulla carta.

Puntare il mouse per vedere il nome della stazione.

Clicca sopra per visualizzare le osservazioni e previsioni meteorologiche.

Per cambiare la mappa : fare clic sui pulsanti verdi con una croce nera per ingrandire, il pulsante verde con un trattino per diminuire, o sulla freccia verde per le mappe adiacenti.


METAR-TAF: